sensor_id;sensor_type;location;lat;lon;timestamp;temperature;humidity
33827;DHT22;20128;45.582;5.298;2022-11-15T00:01:26;13.80;86.70
33827;DHT22;20128;45.582;5.298;2022-11-15T00:03:51;13.80;86.70
33827;DHT22;20128;45.582;5.298;2022-11-15T00:06:17;13.90;86.80
33827;DHT22;20128;45.582;5.298;2022-11-15T00:08:43;13.90;86.80
33827;DHT22;20128;45.582;5.298;2022-11-15T00:11:11;13.90;86.70
33827;DHT22;20128;45.582;5.298;2022-11-15T00:13:37;14.00;86.70
33827;DHT22;20128;45.582;5.298;2022-11-15T00:16:03;13.90;86.60
33827;DHT22;20128;45.582;5.298;2022-11-15T00:18:29;13.90;86.70
33827;DHT22;20128;45.582;5.298;2022-11-15T00:20:56;13.90;86.70
33827;DHT22;20128;45.582;5.298;2022-11-15T00:23:28;13.90;86.90
33827;DHT22;20128;45.582;5.298;2022-11-15T00:25:57;13.90;87.00
33827;DHT22;20128;45.582;5.298;2022-11-15T00:28:24;13.90;87.00
33827;DHT22;20128;45.582;5.298;2022-11-15T00:30:50;13.90;87.00
33827;DHT22;20128;45.582;5.298;2022-11-15T00:33:15;13.90;87.00
33827;DHT22;20128;45.582;5.298;2022-11-15T00:35:41;13.90;87.00
33827;DHT22;20128;45.582;5.298;2022-11-15T00:38:07;13.90;87.20
33827;DHT22;20128;45.582;5.298;2022-11-15T00:40:32;13.90;87.10
33827;DHT22;20128;45.582;5.298;2022-11-15T00:42:58;13.90;87.10
33827;DHT22;20128;45.582;5.298;2022-11-15T00:45:24;13.80;86.90
33827;DHT22;20128;45.582;5.298;2022-11-15T00:47:50;13.70;87.20
33827;DHT22;20128;45.582;5.298;2022-11-15T00:50:16;13.60;87.50
33827;DHT22;20128;45.582;5.298;2022-11-15T00:52:42;13.70;87.50
33827;DHT22;20128;45.582;5.298;2022-11-15T00:55:18;13.60;87.60
33827;DHT22;20128;45.582;5.298;2022-11-15T00:57:45;13.60;87.70
33827;DHT22;20128;45.582;5.298;2022-11-15T01:00:11;13.60;87.70
33827;DHT22;20128;45.582;5.298;2022-11-15T01:02:37;13.50;87.70
33827;DHT22;20128;45.582;5.298;2022-11-15T01:05:04;13.60;87.90
33827;DHT22;20128;45.582;5.298;2022-11-15T01:07:29;13.70;88.00
33827;DHT22;20128;45.582;5.298;2022-11-15T01:09:55;13.70;87.90
33827;DHT22;20128;45.582;5.298;2022-11-15T01:12:21;13.70;88.00
33827;DHT22;20128;45.582;5.298;2022-11-15T01:14:46;13.70;87.90
33827;DHT22;20128;45.582;5.298;2022-11-15T01:17:12;13.60;87.70
33827;DHT22;20128;45.582;5.298;2022-11-15T01:19:38;13.60;88.00
33827;DHT22;20128;45.582;5.298;2022-11-15T01:22:03;13.60;87.90
33827;DHT22;20128;45.582;5.298;2022-11-15T01:24:29;13.60;87.70
33827;DHT22;20128;45.582;5.298;2022-11-15T01:26:55;13.60;87.90
33827;DHT22;20128;45.582;5.298;2022-11-15T01:29:20;13.60;88.00
33827;DHT22;20128;45.582;5.298;2022-11-15T01:31:46;13.60;88.00
33827;DHT22;20128;45.582;5.298;2022-11-15T01:34:12;13.50;88.10
33827;DHT22;20128;45.582;5.298;2022-11-15T01:36:37;13.50;88.30
33827;DHT22;20128;45.582;5.298;2022-11-15T01:39:03;13.50;88.40
33827;DHT22;20128;45.582;5.298;2022-11-15T01:41:32;13.40;88.50
33827;DHT22;20128;45.582;5.298;2022-11-15T01:47:05;13.40;88.80
33827;DHT22;20128;45.582;5.298;2022-11-15T01:49:33;13.30;88.90
33827;DHT22;20128;45.582;5.298;2022-11-15T01:52:03;13.40;88.90
33827;DHT22;20128;45.582;5.298;2022-11-15T01:54:30;13.40;88.90
33827;DHT22;20128;45.582;5.298;2022-11-15T01:57:03;13.40;88.90
33827;DHT22;20128;45.582;5.298;2022-11-15T01:59:29;13.40;89.10
33827;DHT22;20128;45.582;5.298;2022-11-15T02:01:55;13.40;89.10
33827;DHT22;20128;45.582;5.298;2022-11-15T02:04:30;13.30;89.10
33827;DHT22;20128;45.582;5.298;2022-11-15T02:06:56;13.30;89.10
33827;DHT22;20128;45.582;5.298;2022-11-15T02:09:22;13.30;89.00
33827;DHT22;20128;45.582;5.298;2022-11-15T02:11:49;13.30;89.10
33827;DHT22;20128;45.582;5.298;2022-11-15T02:14:16;13.30;89.10
33827;DHT22;20128;45.582;5.298;2022-11-15T02:17:01;13.40;89.10
33827;DHT22;20128;45.582;5.298;2022-11-15T02:27:45;13.40;88.70
33827;DHT22;20128;45.582;5.298;2022-11-15T02:38:27;13.40;89.10
33827;DHT22;20128;45.582;5.298;2022-11-15T02:41:02;13.40;89.20
33827;DHT22;20128;45.582;5.298;2022-11-15T02:46:35;13.40;89.20
33827;DHT22;20128;45.582;5.298;2022-11-15T02:49:22;13.50;89.10
33827;DHT22;20128;45.582;5.298;2022-11-15T02:51:49;13.40;89.10
33827;DHT22;20128;45.582;5.298;2022-11-15T02:54:24;13.40;89.30
33827;DHT22;20128;45.582;5.298;2022-11-15T02:56:53;13.40;89.30
33827;DHT22;20128;45.582;5.298;2022-11-15T03:00:17;13.30;89.50
33827;DHT22;20128;45.582;5.298;2022-11-15T03:02:42;13.30;89.50
33827;DHT22;20128;45.582;5.298;2022-11-15T03:05:15;13.30;89.50
33827;DHT22;20128;45.582;5.298;2022-11-15T03:07:56;13.30;89.60
33827;DHT22;20128;45.582;5.298;2022-11-15T03:13:24;13.40;89.70
33827;DHT22;20128;45.582;5.298;2022-11-15T03:16:06;13.40;89.80
33827;DHT22;20128;45.582;5.298;2022-11-15T03:18:36;13.40;89.70
33827;DHT22;20128;45.582;5.298;2022-11-15T03:21:05;13.40;89.60
33827;DHT22;20128;45.582;5.298;2022-11-15T03:23:33;13.50;89.60
33827;DHT22;20128;45.582;5.298;2022-11-15T03:26:00;13.50;89.60
33827;DHT22;20128;45.582;5.298;2022-11-15T03:28:42;13.50;89.50
33827;DHT22;20128;45.582;5.298;2022-11-15T03:31:11;13.50;89.60
33827;DHT22;20128;45.582;5.298;2022-11-15T03:33:58;13.50;89.70
33827;DHT22;20128;45.582;5.298;2022-11-15T03:36:25;13.50;89.80
33827;DHT22;20128;45.582;5.298;2022-11-15T03:38:54;13.50;89.90
33827;DHT22;20128;45.582;5.298;2022-11-15T03:41:27;13.50;90.00
33827;DHT22;20128;45.582;5.298;2022-11-15T03:44:32;13.50;90.00
33827;DHT22;20128;45.582;5.298;2022-11-15T03:47:24;13.50;90.00
33827;DHT22;20128;45.582;5.298;2022-11-15T03:50:01;13.50;90.00
33827;DHT22;20128;45.582;5.298;2022-11-15T03:52:32;13.50;90.00
33827;DHT22;20128;45.582;5.298;2022-11-15T03:55:00;13.50;89.90
33827;DHT22;20128;45.582;5.298;2022-11-15T03:57:26;13.40;89.90
33827;DHT22;20128;45.582;5.298;2022-11-15T03:59:52;13.50;90.00
33827;DHT22;20128;45.582;5.298;2022-11-15T04:02:18;13.50;90.10
33827;DHT22;20128;45.582;5.298;2022-11-15T04:04:43;13.50;90.10
33827;DHT22;20128;45.582;5.298;2022-11-15T04:07:09;13.50;90.10
33827;DHT22;20128;45.582;5.298;2022-11-15T04:09:34;13.50;90.10
33827;DHT22;20128;45.582;5.298;2022-11-15T04:12:20;13.50;90.10
33827;DHT22;20128;45.582;5.298;2022-11-15T04:15:00;13.50;90.00
33827;DHT22;20128;45.582;5.298;2022-11-15T04:17:37;13.50;90.00
33827;DHT22;20128;45.582;5.298;2022-11-15T04:20:10;13.50;90.00
33827;DHT22;20128;45.582;5.298;2022-11-15T04:22:56;13.50;89.90
33827;DHT22;20128;45.582;5.298;2022-11-15T04:25:41;13.50;89.90
33827;DHT22;20128;45.582;5.298;2022-11-15T04:28:08;13.50;90.00
33827;DHT22;20128;45.582;5.298;2022-11-15T04:30:34;13.50;90.10
33827;DHT22;20128;45.582;5.298;2022-11-15T04:32:59;13.50;90.10
33827;DHT22;20128;45.582;5.298;2022-11-15T04:35:25;13.50;90.20
33827;DHT22;20128;45.582;5.298;2022-11-15T04:37:51;13.50;90.20
33827;DHT22;20128;45.582;5.298;2022-11-15T04:40:16;13.50;90.20
33827;DHT22;20128;45.582;5.298;2022-11-15T04:42:42;13.40;90.20
33827;DHT22;20128;45.582;5.298;2022-11-15T04:45:09;13.40;90.20
33827;DHT22;20128;45.582;5.298;2022-11-15T04:47:35;13.40;90.20
33827;DHT22;20128;45.582;5.298;2022-11-15T04:50:01;13.30;90.30
33827;DHT22;20128;45.582;5.298;2022-11-15T04:52:26;13.40;90.40
33827;DHT22;20128;45.582;5.298;2022-11-15T04:54:53;13.30;90.40
33827;DHT22;20128;45.582;5.298;2022-11-15T04:57:19;13.40;90.40
33827;DHT22;20128;45.582;5.298;2022-11-15T04:59:44;13.40;90.40
33827;DHT22;20128;45.582;5.298;2022-11-15T05:02:10;13.40;90.40
33827;DHT22;20128;45.582;5.298;2022-11-15T05:04:36;13.40;90.40
33827;DHT22;20128;45.582;5.298;2022-11-15T05:07:01;13.50;90.30
33827;DHT22;20128;45.582;5.298;2022-11-15T05:09:29;13.40;90.20
33827;DHT22;20128;45.582;5.298;2022-11-15T05:11:55;13.50;90.20
33827;DHT22;20128;45.582;5.298;2022-11-15T05:14:20;13.50;90.30
33827;DHT22;20128;45.582;5.298;2022-11-15T05:16:46;13.40;90.30
33827;DHT22;20128;45.582;5.298;2022-11-15T05:19:12;13.50;90.30
33827;DHT22;20128;45.582;5.298;2022-11-15T05:21:39;13.40;90.20
33827;DHT22;20128;45.582;5.298;2022-11-15T05:24:05;13.40;90.30
33827;DHT22;20128;45.582;5.298;2022-11-15T05:26:31;13.40;90.30
33827;DHT22;20128;45.582;5.298;2022-11-15T05:28:58;13.40;90.30
33827;DHT22;20128;45.582;5.298;2022-11-15T05:31:25;13.40;90.30
33827;DHT22;20128;45.582;5.298;2022-11-15T05:33:53;13.40;90.30
33827;DHT22;20128;45.582;5.298;2022-11-15T05:36:29;13.30;90.30
33827;DHT22;20128;45.582;5.298;2022-11-15T05:38:57;13.40;90.30
33827;DHT22;20128;45.582;5.298;2022-11-15T05:41:30;13.30;90.20
33827;DHT22;20128;45.582;5.298;2022-11-15T05:43:57;13.30;90.40
33827;DHT22;20128;45.582;5.298;2022-11-15T05:46:23;13.30;90.40
33827;DHT22;20128;45.582;5.298;2022-11-15T05:48:50;13.30;90.40
33827;DHT22;20128;45.582;5.298;2022-11-15T05:51:17;13.30;90.50
33827;DHT22;20128;45.582;5.298;2022-11-15T05:53:44;13.40;90.40
33827;DHT22;20128;45.582;5.298;2022-11-15T05:56:11;13.30;90.30
33827;DHT22;20128;45.582;5.298;2022-11-15T05:58:37;13.30;90.40
33827;DHT22;20128;45.582;5.298;2022-11-15T06:01:03;13.30;90.40
33827;DHT22;20128;45.582;5.298;2022-11-15T06:03:29;13.30;90.40
33827;DHT22;20128;45.582;5.298;2022-11-15T06:05:56;13.30;90.50
33827;DHT22;20128;45.582;5.298;2022-11-15T06:08:22;13.20;90.40
33827;DHT22;20128;45.582;5.298;2022-11-15T06:10:48;13.20;90.50
33827;DHT22;20128;45.582;5.298;2022-11-15T06:13:13;13.20;90.60
33827;DHT22;20128;45.582;5.298;2022-11-15T06:15:39;13.20;90.70
33827;DHT22;20128;45.582;5.298;2022-11-15T06:18:05;13.20;90.70
33827;DHT22;20128;45.582;5.298;2022-11-15T06:20:30;13.30;90.70
33827;DHT22;20128;45.582;5.298;2022-11-15T06:23:01;13.30;90.70
33827;DHT22;20128;45.582;5.298;2022-11-15T06:25:28;13.20;90.80
33827;DHT22;20128;45.582;5.298;2022-11-15T06:27:55;13.20;90.80
33827;DHT22;20128;45.582;5.298;2022-11-15T06:30:21;13.30;90.70
33827;DHT22;20128;45.582;5.298;2022-11-15T06:32:47;13.30;91.00
33827;DHT22;20128;45.582;5.298;2022-11-15T06:35:13;13.30;90.70
33827;DHT22;20128;45.582;5.298;2022-11-15T06:37:40;13.30;90.70
33827;DHT22;20128;45.582;5.298;2022-11-15T06:40:07;13.20;90.70
33827;DHT22;20128;45.582;5.298;2022-11-15T06:42:33;13.30;90.70
33827;DHT22;20128;45.582;5.298;2022-11-15T06:44:59;13.20;90.70
33827;DHT22;20128;45.582;5.298;2022-11-15T06:47:25;13.20;90.70
33827;DHT22;20128;45.582;5.298;2022-11-15T06:49:53;13.20;90.80
33827;DHT22;20128;45.582;5.298;2022-11-15T06:52:21;13.20;90.80
33827;DHT22;20128;45.582;5.298;2022-11-15T06:54:47;13.20;90.80
33827;DHT22;20128;45.582;5.298;2022-11-15T06:57:13;13.20;90.80
33827;DHT22;20128;45.582;5.298;2022-11-15T06:59:39;13.20;90.90
33827;DHT22;20128;45.582;5.298;2022-11-15T07:02:04;13.20;90.90
33827;DHT22;20128;45.582;5.298;2022-11-15T07:04:30;13.20;90.90
33827;DHT22;20128;45.582;5.298;2022-11-15T07:06:56;13.20;90.90
33827;DHT22;20128;45.582;5.298;2022-11-15T07:09:21;13.20;90.80
33827;DHT22;20128;45.582;5.298;2022-11-15T07:11:47;13.20;90.90
33827;DHT22;20128;45.582;5.298;2022-11-15T07:14:13;13.20;90.90
33827;DHT22;20128;45.582;5.298;2022-11-15T07:16:38;13.10;90.90
33827;DHT22;20128;45.582;5.298;2022-11-15T07:19:04;13.20;91.00
33827;DHT22;20128;45.582;5.298;2022-11-15T07:21:30;13.20;90.90
33827;DHT22;20128;45.582;5.298;2022-11-15T07:23:55;13.10;91.00
33827;DHT22;20128;45.582;5.298;2022-11-15T07:26:21;13.10;91.00
33827;DHT22;20128;45.582;5.298;2022-11-15T07:28:47;13.10;91.00
33827;DHT22;20128;45.582;5.298;2022-11-15T07:31:12;13.10;91.00
33827;DHT22;20128;45.582;5.298;2022-11-15T07:33:38;13.20;91.10
33827;DHT22;20128;45.582;5.298;2022-11-15T07:36:05;13.20;91.10
33827;DHT22;20128;45.582;5.298;2022-11-15T07:38:32;13.20;91.00
33827;DHT22;20128;45.582;5.298;2022-11-15T07:41:00;13.20;91.10
33827;DHT22;20128;45.582;5.298;2022-11-15T07:43:26;13.20;91.00
33827;DHT22;20128;45.582;5.298;2022-11-15T07:45:58;13.20;91.00
33827;DHT22;20128;45.582;5.298;2022-11-15T07:48:23;13.20;91.00
33827;DHT22;20128;45.582;5.298;2022-11-15T07:50:49;13.10;91.00
33827;DHT22;20128;45.582;5.298;2022-11-15T07:53:16;13.00;91.10
33827;DHT22;20128;45.582;5.298;2022-11-15T07:55:42;13.00;91.20
33827;DHT22;20128;45.582;5.298;2022-11-15T07:58:10;13.00;91.20
33827;DHT22;20128;45.582;5.298;2022-11-15T08:00:37;13.10;91.20
33827;DHT22;20128;45.582;5.298;2022-11-15T08:03:15;13.10;91.20
33827;DHT22;20128;45.582;5.298;2022-11-15T08:05:43;13.10;91.20
33827;DHT22;20128;45.582;5.298;2022-11-15T08:08:15;13.20;91.20
33827;DHT22;20128;45.582;5.298;2022-11-15T08:10:40;13.20;91.20
33827;DHT22;20128;45.582;5.298;2022-11-15T08:13:09;13.20;91.20
33827;DHT22;20128;45.582;5.298;2022-11-15T08:15:35;13.20;91.20
33827;DHT22;20128;45.582;5.298;2022-11-15T08:18:05;13.20;91.20
33827;DHT22;20128;45.582;5.298;2022-11-15T08:20:32;13.20;91.30
33827;DHT22;20128;45.582;5.298;2022-11-15T08:22:59;13.20;91.30
33827;DHT22;20128;45.582;5.298;2022-11-15T08:25:26;13.20;91.30
33827;DHT22;20128;45.582;5.298;2022-11-15T08:27:56;13.20;91.30
33827;DHT22;20128;45.582;5.298;2022-11-15T08:30:23;13.20;91.40
33827;DHT22;20128;45.582;5.298;2022-11-15T08:32:50;13.20;91.50
33827;DHT22;20128;45.582;5.298;2022-11-15T08:35:16;13.20;91.40
33827;DHT22;20128;45.582;5.298;2022-11-15T08:37:41;13.20;91.30
33827;DHT22;20128;45.582;5.298;2022-11-15T08:40:08;13.10;91.30
33827;DHT22;20128;45.582;5.298;2022-11-15T08:42:33;13.10;91.40
33827;DHT22;20128;45.582;5.298;2022-11-15T08:44:59;13.10;91.50
33827;DHT22;20128;45.582;5.298;2022-11-15T08:47:25;13.10;91.50
33827;DHT22;20128;45.582;5.298;2022-11-15T08:49:50;13.20;91.50
33827;DHT22;20128;45.582;5.298;2022-11-15T08:52:16;13.30;91.50
33827;DHT22;20128;45.582;5.298;2022-11-15T08:54:42;13.20;91.40
33827;DHT22;20128;45.582;5.298;2022-11-15T08:57:07;13.30;91.40
33827;DHT22;20128;45.582;5.298;2022-11-15T08:59:35;13.20;91.30
33827;DHT22;20128;45.582;5.298;2022-11-15T09:02:01;13.30;91.30
33827;DHT22;20128;45.582;5.298;2022-11-15T09:04:27;13.30;91.20
33827;DHT22;20128;45.582;5.298;2022-11-15T09:06:53;13.30;91.20
33827;DHT22;20128;45.582;5.298;2022-11-15T09:09:18;13.40;91.30
33827;DHT22;20128;45.582;5.298;2022-11-15T09:11:44;13.40;91.20
33827;DHT22;20128;45.582;5.298;2022-11-15T09:14:13;13.50;91.30
33827;DHT22;20128;45.582;5.298;2022-11-15T09:16:39;13.60;91.20
33827;DHT22;20128;45.582;5.298;2022-11-15T09:19:05;13.70;91.00
33827;DHT22;20128;45.582;5.298;2022-11-15T09:21:30;13.70;90.80
33827;DHT22;20128;45.582;5.298;2022-11-15T09:23:56;13.70;90.90
33827;DHT22;20128;45.582;5.298;2022-11-15T09:26:22;13.70;90.80
33827;DHT22;20128;45.582;5.298;2022-11-15T09:28:48;13.80;90.60
33827;DHT22;20128;45.582;5.298;2022-11-15T09:31:14;13.80;90.60
33827;DHT22;20128;45.582;5.298;2022-11-15T09:33:39;13.80;90.60
33827;DHT22;20128;45.582;5.298;2022-11-15T09:36:07;13.90;90.60
33827;DHT22;20128;45.582;5.298;2022-11-15T09:38:34;14.00;90.50
33827;DHT22;20128;45.582;5.298;2022-11-15T09:47:08;14.00;90.50
33827;DHT22;20128;45.582;5.298;2022-11-15T09:49:39;14.00;90.60
33827;DHT22;20128;45.582;5.298;2022-11-15T09:52:07;14.00;90.70
33827;DHT22;20128;45.582;5.298;2022-11-15T09:54:37;14.10;90.60
33827;DHT22;20128;45.582;5.298;2022-11-15T09:57:16;14.20;90.60
33827;DHT22;20128;45.582;5.298;2022-11-15T10:04:58;14.30;90.30
33827;DHT22;20128;45.582;5.298;2022-11-15T10:07:48;14.30;90.30
33827;DHT22;20128;45.582;5.298;2022-11-15T10:10:32;14.30;90.20
33827;DHT22;20128;45.582;5.298;2022-11-15T10:13:02;14.30;90.20
33827;DHT22;20128;45.582;5.298;2022-11-15T10:15:28;14.40;90.30
33827;DHT22;20128;45.582;5.298;2022-11-15T10:20:27;14.40;90.20
33827;DHT22;20128;45.582;5.298;2022-11-15T10:22:58;14.50;90.10
33827;DHT22;20128;45.582;5.298;2022-11-15T10:25:25;14.50;90.00
33827;DHT22;20128;45.582;5.298;2022-11-15T10:28:00;14.50;90.00
33827;DHT22;20128;45.582;5.298;2022-11-15T10:30:39;14.50;90.00
33827;DHT22;20128;45.582;5.298;2022-11-15T10:33:25;14.60;90.00
33827;DHT22;20128;45.582;5.298;2022-11-15T10:36:21;14.60;89.90
33827;DHT22;20128;45.582;5.298;2022-11-15T10:41:36;14.60;89.90
33827;DHT22;20128;45.582;5.298;2022-11-15T10:44:18;14.60;89.90
33827;DHT22;20128;45.582;5.298;2022-11-15T10:46:47;14.60;89.90
33827;DHT22;20128;45.582;5.298;2022-11-15T10:49:21;14.60;90.00
33827;DHT22;20128;45.582;5.298;2022-11-15T10:51:52;14.60;90.00
33827;DHT22;20128;45.582;5.298;2022-11-15T10:54:39;14.70;90.10
33827;DHT22;20128;45.582;5.298;2022-11-15T10:57:13;14.70;90.10
33827;DHT22;20128;45.582;5.298;2022-11-15T10:59:45;14.60;90.10
33827;DHT22;20128;45.582;5.298;2022-11-15T11:02:36;14.70;90.10
33827;DHT22;20128;45.582;5.298;2022-11-15T11:05:05;14.70;89.90
33827;DHT22;20128;45.582;5.298;2022-11-15T11:07:33;14.60;89.90
33827;DHT22;20128;45.582;5.298;2022-11-15T11:10:19;14.60;90.10
33827;DHT22;20128;45.582;5.298;2022-11-15T11:12:44;14.60;90.20
33827;DHT22;20128;45.582;5.298;2022-11-15T11:15:14;14.60;90.10
33827;DHT22;20128;45.582;5.298;2022-11-15T11:18:07;14.60;90.10
33827;DHT22;20128;45.582;5.298;2022-11-15T11:28:39;14.60;90.10
33827;DHT22;20128;45.582;5.298;2022-11-15T11:34:49;14.60;90.10
33827;DHT22;20128;45.582;5.298;2022-11-15T11:40:40;14.60;90.10
33827;DHT22;20128;45.582;5.298;2022-11-15T11:54:21;14.70;90.30
33827;DHT22;20128;45.582;5.298;2022-11-15T11:56:48;14.70;90.30
33827;DHT22;20128;45.582;5.298;2022-11-15T12:01:53;14.80;90.30
33827;DHT22;20128;45.582;5.298;2022-11-15T12:04:20;14.80;90.40
33827;DHT22;20128;45.582;5.298;2022-11-15T12:15:27;14.90;90.10
33827;DHT22;20128;45.582;5.298;2022-11-15T12:17:55;14.90;89.50
33827;DHT22;20128;45.582;5.298;2022-11-15T12:20:28;14.90;89.60
33827;DHT22;20128;45.582;5.298;2022-11-15T12:23:15;14.90;89.40
33827;DHT22;20128;45.582;5.298;2022-11-15T12:26:06;14.90;89.20
33827;DHT22;20128;45.582;5.298;2022-11-15T12:34:02;15.00;87.30
33827;DHT22;20128;45.582;5.298;2022-11-15T12:36:42;14.90;87.70
33827;DHT22;20128;45.582;5.298;2022-11-15T12:39:10;14.90;87.80
33827;DHT22;20128;45.582;5.298;2022-11-15T12:41:39;14.90;88.00
33827;DHT22;20128;45.582;5.298;2022-11-15T12:44:11;14.90;88.40
33827;DHT22;20128;45.582;5.298;2022-11-15T12:49:41;14.90;87.90
33827;DHT22;20128;45.582;5.298;2022-11-15T12:59:54;14.90;88.00
33827;DHT22;20128;45.582;5.298;2022-11-15T13:04:47;14.90;87.50
33827;DHT22;20128;45.582;5.298;2022-11-15T13:10:01;14.80;87.50
33827;DHT22;20128;45.582;5.298;2022-11-15T13:22:43;14.90;88.00
33827;DHT22;20128;45.582;5.298;2022-11-15T13:25:37;14.90;87.80
33827;DHT22;20128;45.582;5.298;2022-11-15T13:28:10;14.90;88.00
33827;DHT22;20128;45.582;5.298;2022-11-15T13:30:37;14.90;88.50
33827;DHT22;20128;45.582;5.298;2022-11-15T13:33:14;14.90;88.80
33827;DHT22;20128;45.582;5.298;2022-11-15T13:35:41;14.90;89.20
33827;DHT22;20128;45.582;5.298;2022-11-15T13:38:27;14.90;89.50
33827;DHT22;20128;45.582;5.298;2022-11-15T13:40:53;14.90;90.10
33827;DHT22;20128;45.582;5.298;2022-11-15T13:48:37;14.90;90.10
33827;DHT22;20128;45.582;5.298;2022-11-15T13:51:14;14.90;90.20
33827;DHT22;20128;45.582;5.298;2022-11-15T13:53:42;14.90;90.10
33827;DHT22;20128;45.582;5.298;2022-11-15T13:56:12;15.00;90.10
33827;DHT22;20128;45.582;5.298;2022-11-15T13:58:39;15.00;90.10
33827;DHT22;20128;45.582;5.298;2022-11-15T14:01:05;15.00;90.10
33827;DHT22;20128;45.582;5.298;2022-11-15T14:03:46;15.00;90.20
33827;DHT22;20128;45.582;5.298;2022-11-15T14:06:14;15.00;90.10
33827;DHT22;20128;45.582;5.298;2022-11-15T14:11:28;15.00;90.00
33827;DHT22;20128;45.582;5.298;2022-11-15T14:19:05;15.10;90.10
33827;DHT22;20128;45.582;5.298;2022-11-15T14:21:31;15.10;90.10
33827;DHT22;20128;45.582;5.298;2022-11-15T14:24:16;15.10;89.80
33827;DHT22;20128;45.582;5.298;2022-11-15T14:26:43;15.10;90.00
33827;DHT22;20128;45.582;5.298;2022-11-15T14:29:28;15.10;90.00
33827;DHT22;20128;45.582;5.298;2022-11-15T14:32:15;15.10;90.00
33827;DHT22;20128;45.582;5.298;2022-11-15T14:34:41;15.10;90.00
33827;DHT22;20128;45.582;5.298;2022-11-15T14:37:34;15.10;90.10
33827;DHT22;20128;45.582;5.298;2022-11-15T14:40:02;15.10;90.00
33827;DHT22;20128;45.582;5.298;2022-11-15T14:42:28;15.10;89.30
33827;DHT22;20128;45.582;5.298;2022-11-15T14:44:54;15.10;89.20
33827;DHT22;20128;45.582;5.298;2022-11-15T14:47:20;15.10;89.40
33827;DHT22;20128;45.582;5.298;2022-11-15T14:49:46;15.20;89.80
33827;DHT22;20128;45.582;5.298;2022-11-15T14:52:38;15.10;90.00
33827;DHT22;20128;45.582;5.298;2022-11-15T14:55:23;15.10;90.20
33827;DHT22;20128;45.582;5.298;2022-11-15T14:57:50;15.10;90.30
33827;DHT22;20128;45.582;5.298;2022-11-15T15:00:18;15.10;90.40
33827;DHT22;20128;45.582;5.298;2022-11-15T15:02:45;15.10;90.40
33827;DHT22;20128;45.582;5.298;2022-11-15T15:07:43;15.10;90.50
33827;DHT22;20128;45.582;5.298;2022-11-15T15:10:09;15.10;90.50
33827;DHT22;20128;45.582;5.298;2022-11-15T15:12:35;15.10;90.50
33827;DHT22;20128;45.582;5.298;2022-11-15T15:15:00;15.10;90.50
33827;DHT22;20128;45.582;5.298;2022-11-15T15:17:26;15.10;90.50
33827;DHT22;20128;45.582;5.298;2022-11-15T15:19:51;15.10;90.60
33827;DHT22;20128;45.582;5.298;2022-11-15T15:22:19;15.10;90.50
33827;DHT22;20128;45.582;5.298;2022-11-15T15:24:47;15.10;90.50
33827;DHT22;20128;45.582;5.298;2022-11-15T15:27:13;15.10;90.40
33827;DHT22;20128;45.582;5.298;2022-11-15T15:29:39;15.10;90.40
33827;DHT22;20128;45.582;5.298;2022-11-15T15:32:05;15.10;90.50
33827;DHT22;20128;45.582;5.298;2022-11-15T15:34:31;15.10;90.60
33827;DHT22;20128;45.582;5.298;2022-11-15T15:37:36;15.10;90.70
33827;DHT22;20128;45.582;5.298;2022-11-15T15:40:02;15.10;90.60
33827;DHT22;20128;45.582;5.298;2022-11-15T15:42:27;15.10;90.50
33827;DHT22;20128;45.582;5.298;2022-11-15T15:44:53;15.10;90.50
33827;DHT22;20128;45.582;5.298;2022-11-15T15:47:21;15.10;90.40
33827;DHT22;20128;45.582;5.298;2022-11-15T15:49:47;15.00;90.40
33827;DHT22;20128;45.582;5.298;2022-11-15T15:52:13;15.00;90.50
33827;DHT22;20128;45.582;5.298;2022-11-15T15:54:39;15.00;90.50
33827;DHT22;20128;45.582;5.298;2022-11-15T15:57:06;15.00;90.40
33827;DHT22;20128;45.582;5.298;2022-11-15T15:59:32;15.00;90.40
33827;DHT22;20128;45.582;5.298;2022-11-15T16:01:58;15.00;90.50
33827;DHT22;20128;45.582;5.298;2022-11-15T16:04:23;15.00;90.60
33827;DHT22;20128;45.582;5.298;2022-11-15T16:06:50;15.00;90.70
33827;DHT22;20128;45.582;5.298;2022-11-15T16:09:19;15.00;90.80
33827;DHT22;20128;45.582;5.298;2022-11-15T16:12:08;15.00;90.80
33827;DHT22;20128;45.582;5.298;2022-11-15T16:14:33;15.00;90.90
33827;DHT22;20128;45.582;5.298;2022-11-15T16:16:59;15.00;90.90
33827;DHT22;20128;45.582;5.298;2022-11-15T16:19:24;15.00;91.00
33827;DHT22;20128;45.582;5.298;2022-11-15T16:21:50;15.00;91.00
33827;DHT22;20128;45.582;5.298;2022-11-15T16:24:18;15.00;91.10
33827;DHT22;20128;45.582;5.298;2022-11-15T16:26:44;15.00;91.10
33827;DHT22;20128;45.582;5.298;2022-11-15T16:29:10;14.90;91.10
33827;DHT22;20128;45.582;5.298;2022-11-15T16:31:36;14.90;91.10
33827;DHT22;20128;45.582;5.298;2022-11-15T16:34:02;14.90;91.20
33827;DHT22;20128;45.582;5.298;2022-11-15T16:36:30;14.90;91.20
33827;DHT22;20128;45.582;5.298;2022-11-15T16:38:58;14.80;91.30
33827;DHT22;20128;45.582;5.298;2022-11-15T16:41:24;14.80;91.30
33827;DHT22;20128;45.582;5.298;2022-11-15T16:43:50;14.80;91.30
33827;DHT22;20128;45.582;5.298;2022-11-15T16:46:26;14.80;91.30
33827;DHT22;20128;45.582;5.298;2022-11-15T16:48:53;14.80;91.30
33827;DHT22;20128;45.582;5.298;2022-11-15T16:51:18;14.80;91.30
33827;DHT22;20128;45.582;5.298;2022-11-15T16:53:44;14.80;91.30
33827;DHT22;20128;45.582;5.298;2022-11-15T16:58:44;14.90;91.40
33827;DHT22;20128;45.582;5.298;2022-11-15T17:01:22;14.90;91.40
33827;DHT22;20128;45.582;5.298;2022-11-15T17:03:48;14.80;91.30
33827;DHT22;20128;45.582;5.298;2022-11-15T17:06:14;14.90;91.40
33827;DHT22;20128;45.582;5.298;2022-11-15T17:08:40;14.90;91.40
33827;DHT22;20128;45.582;5.298;2022-11-15T17:11:10;14.90;91.40
33827;DHT22;20128;45.582;5.298;2022-11-15T17:13:36;14.80;91.50
33827;DHT22;20128;45.582;5.298;2022-11-15T17:16:20;14.90;91.50
33827;DHT22;20128;45.582;5.298;2022-11-15T17:18:50;14.90;91.40
33827;DHT22;20128;45.582;5.298;2022-11-15T17:21:17;14.90;91.50
33827;DHT22;20128;45.582;5.298;2022-11-15T17:23:43;14.90;91.50
33827;DHT22;20128;45.582;5.298;2022-11-15T17:26:10;14.90;91.50
33827;DHT22;20128;45.582;5.298;2022-11-15T17:28:37;14.90;91.50
33827;DHT22;20128;45.582;5.298;2022-11-15T17:31:06;14.90;91.50
33827;DHT22;20128;45.582;5.298;2022-11-15T17:33:33;14.90;91.50
33827;DHT22;20128;45.582;5.298;2022-11-15T17:36:03;14.90;91.40
33827;DHT22;20128;45.582;5.298;2022-11-15T17:38:30;14.90;91.30
33827;DHT22;20128;45.582;5.298;2022-11-15T17:41:10;14.90;91.30
33827;DHT22;20128;45.582;5.298;2022-11-15T17:43:36;14.90;91.40
33827;DHT22;20128;45.582;5.298;2022-11-15T17:46:07;14.90;91.50
33827;DHT22;20128;45.582;5.298;2022-11-15T17:48:34;14.90;91.50
33827;DHT22;20128;45.582;5.298;2022-11-15T17:51:00;14.90;91.50
33827;DHT22;20128;45.582;5.298;2022-11-15T17:53:27;14.90;91.60